sensor_id;sensor_type;location;lat;lon;timestamp;temperature;humidity
1011;DHT22;494;48.744;10.106;2023-05-18T00:00:18;6.60;34.70
1011;DHT22;494;48.744;10.106;2023-05-18T00:02:47;6.60;34.80
1011;DHT22;494;48.744;10.106;2023-05-18T00:05:16;6.60;34.80
1011;DHT22;494;48.744;10.106;2023-05-18T00:07:45;6.60;35.10
1011;DHT22;494;48.744;10.106;2023-05-18T00:10:15;6.50;35.30
1011;DHT22;494;48.744;10.106;2023-05-18T00:12:44;6.50;35.30
1011;DHT22;494;48.744;10.106;2023-05-18T00:15:15;6.50;35.30
1011;DHT22;494;48.744;10.106;2023-05-18T00:17:44;6.60;35.50
1011;DHT22;494;48.744;10.106;2023-05-18T00:20:15;6.50;35.20
1011;DHT22;494;48.744;10.106;2023-05-18T00:22:48;6.50;35.10
1011;DHT22;494;48.744;10.106;2023-05-18T00:25:17;6.50;35.20
1011;DHT22;494;48.744;10.106;2023-05-18T00:27:46;6.40;35.10
1011;DHT22;494;48.744;10.106;2023-05-18T00:30:19;6.50;35.40
1011;DHT22;494;48.744;10.106;2023-05-18T00:32:52;6.40;35.20
1011;DHT22;494;48.744;10.106;2023-05-18T00:35:26;6.40;35.30
1011;DHT22;494;48.744;10.106;2023-05-18T00:37:56;6.30;35.50
1011;DHT22;494;48.744;10.106;2023-05-18T00:40:26;6.20;35.50
1011;DHT22;494;48.744;10.106;2023-05-18T00:42:56;6.20;35.40
1011;DHT22;494;48.744;10.106;2023-05-18T00:45:26;6.20;35.40
1011;DHT22;494;48.744;10.106;2023-05-18T00:47:55;6.10;35.10
1011;DHT22;494;48.744;10.106;2023-05-18T00:50:24;6.10;35.50
1011;DHT22;494;48.744;10.106;2023-05-18T00:52:53;5.90;35.60
1011;DHT22;494;48.744;10.106;2023-05-18T00:55:24;5.90;36.00
1011;DHT22;494;48.744;10.106;2023-05-18T00:57:55;5.90;36.00
1011;DHT22;494;48.744;10.106;2023-05-18T01:00:27;5.70;36.50
1011;DHT22;494;48.744;10.106;2023-05-18T01:02:56;5.80;36.90
1011;DHT22;494;48.744;10.106;2023-05-18T01:05:29;5.60;37.30
1011;DHT22;494;48.744;10.106;2023-05-18T01:07:58;5.70;37.40
1011;DHT22;494;48.744;10.106;2023-05-18T01:10:32;5.60;37.50
1011;DHT22;494;48.744;10.106;2023-05-18T01:13:11;5.50;37.40
1011;DHT22;494;48.744;10.106;2023-05-18T01:15:45;5.50;37.50
1011;DHT22;494;48.744;10.106;2023-05-18T01:18:21;5.50;37.50
1011;DHT22;494;48.744;10.106;2023-05-18T01:20:58;5.40;37.50
1011;DHT22;494;48.744;10.106;2023-05-18T01:23:52;5.40;37.80
1011;DHT22;494;48.744;10.106;2023-05-18T01:26:33;5.70;38.10
1011;DHT22;494;48.744;10.106;2023-05-18T01:29:08;5.70;37.90
1011;DHT22;494;48.744;10.106;2023-05-18T01:31:40;5.50;37.50
1011;DHT22;494;48.744;10.106;2023-05-18T01:34:10;5.70;37.60
1011;DHT22;494;48.744;10.106;2023-05-18T01:36:39;5.30;38.00
1011;DHT22;494;48.744;10.106;2023-05-18T01:39:08;5.30;38.60
1011;DHT22;494;48.744;10.106;2023-05-18T01:41:44;5.40;38.90
1011;DHT22;494;48.744;10.106;2023-05-18T01:44:22;5.30;38.70
1011;DHT22;494;48.744;10.106;2023-05-18T01:46:59;5.20;38.70
1011;DHT22;494;48.744;10.106;2023-05-18T01:49:35;5.30;38.70
1011;DHT22;494;48.744;10.106;2023-05-18T01:52:10;5.30;38.90
1011;DHT22;494;48.744;10.106;2023-05-18T01:54:47;5.20;39.10
1011;DHT22;494;48.744;10.106;2023-05-18T01:57:23;5.40;39.40
1011;DHT22;494;48.744;10.106;2023-05-18T01:59:54;5.30;39.30
1011;DHT22;494;48.744;10.106;2023-05-18T02:02:26;5.40;39.30
1011;DHT22;494;48.744;10.106;2023-05-18T02:04:55;5.20;39.30
1011;DHT22;494;48.744;10.106;2023-05-18T02:07:24;5.20;39.20
1011;DHT22;494;48.744;10.106;2023-05-18T02:09:53;5.20;39.30
1011;DHT22;494;48.744;10.106;2023-05-18T02:12:24;5.10;39.30
1011;DHT22;494;48.744;10.106;2023-05-18T02:14:52;5.20;39.40
1011;DHT22;494;48.744;10.106;2023-05-18T02:17:24;5.30;39.70
1011;DHT22;494;48.744;10.106;2023-05-18T02:19:53;5.30;39.80
1011;DHT22;494;48.744;10.106;2023-05-18T02:22:22;5.20;39.80
1011;DHT22;494;48.744;10.106;2023-05-18T02:24:51;5.40;40.00
1011;DHT22;494;48.744;10.106;2023-05-18T02:27:20;5.20;40.10
1011;DHT22;494;48.744;10.106;2023-05-18T02:29:51;5.20;40.40
1011;DHT22;494;48.744;10.106;2023-05-18T02:32:19;5.20;40.50
1011;DHT22;494;48.744;10.106;2023-05-18T02:34:50;5.40;40.40
1011;DHT22;494;48.744;10.106;2023-05-18T02:37:19;5.40;39.80
1011;DHT22;494;48.744;10.106;2023-05-18T02:39:50;5.40;39.80
1011;DHT22;494;48.744;10.106;2023-05-18T02:42:19;5.30;39.70
1011;DHT22;494;48.744;10.106;2023-05-18T02:44:50;5.40;39.80
1011;DHT22;494;48.744;10.106;2023-05-18T02:47:19;5.50;39.70
1011;DHT22;494;48.744;10.106;2023-05-18T02:49:49;5.50;39.70
1011;DHT22;494;48.744;10.106;2023-05-18T02:52:19;5.60;39.50
1011;DHT22;494;48.744;10.106;2023-05-18T02:54:48;5.60;38.90
1011;DHT22;494;48.744;10.106;2023-05-18T02:57:17;5.70;38.60
1011;DHT22;494;48.744;10.106;2023-05-18T02:59:46;5.90;38.20
1011;DHT22;494;48.744;10.106;2023-05-18T03:02:18;5.80;37.90
1011;DHT22;494;48.744;10.106;2023-05-18T03:04:49;5.70;37.50
1011;DHT22;494;48.744;10.106;2023-05-18T03:07:24;5.80;37.30
1011;DHT22;494;48.744;10.106;2023-05-18T03:09:53;5.80;37.10
1011;DHT22;494;48.744;10.106;2023-05-18T03:12:22;5.80;36.80
1011;DHT22;494;48.744;10.106;2023-05-18T03:14:51;5.80;36.70
1011;DHT22;494;48.744;10.106;2023-05-18T03:17:21;5.80;36.50
1011;DHT22;494;48.744;10.106;2023-05-18T03:19:50;5.90;36.40
1011;DHT22;494;48.744;10.106;2023-05-18T03:22:19;5.90;36.30
1011;DHT22;494;48.744;10.106;2023-05-18T03:24:47;6.10;36.20
1011;DHT22;494;48.744;10.106;2023-05-18T03:27:17;6.00;36.10
1011;DHT22;494;48.744;10.106;2023-05-18T03:29:51;6.10;36.00
1011;DHT22;494;48.744;10.106;2023-05-18T03:32:22;6.10;35.80
1011;DHT22;494;48.744;10.106;2023-05-18T03:34:52;6.20;35.70
1011;DHT22;494;48.744;10.106;2023-05-18T03:37:21;5.90;35.60
1011;DHT22;494;48.744;10.106;2023-05-18T03:39:50;6.00;35.50
1011;DHT22;494;48.744;10.106;2023-05-18T03:42:20;5.90;35.50
1011;DHT22;494;48.744;10.106;2023-05-18T03:44:49;5.90;35.10
1011;DHT22;494;48.744;10.106;2023-05-18T03:47:17;6.20;35.40
1011;DHT22;494;48.744;10.106;2023-05-18T03:49:50;6.00;35.30
1011;DHT22;494;48.744;10.106;2023-05-18T03:52:19;6.00;35.30
1011;DHT22;494;48.744;10.106;2023-05-18T03:54:50;6.00;35.50
1011;DHT22;494;48.744;10.106;2023-05-18T03:57:19;6.00;35.30
1011;DHT22;494;48.744;10.106;2023-05-18T03:59:48;6.00;35.50
1011;DHT22;494;48.744;10.106;2023-05-18T04:02:16;6.00;35.60
1011;DHT22;494;48.744;10.106;2023-05-18T04:04:45;6.10;35.50
1011;DHT22;494;48.744;10.106;2023-05-18T04:07:16;6.00;35.40
1011;DHT22;494;48.744;10.106;2023-05-18T04:09:47;6.10;35.60
1011;DHT22;494;48.744;10.106;2023-05-18T04:12:17;6.10;35.70
1011;DHT22;494;48.744;10.106;2023-05-18T04:14:46;6.20;35.80
1011;DHT22;494;48.744;10.106;2023-05-18T04:17:16;6.30;35.80
1011;DHT22;494;48.744;10.106;2023-05-18T04:19:48;6.30;35.70
1011;DHT22;494;48.744;10.106;2023-05-18T04:22:19;6.30;35.50
1011;DHT22;494;48.744;10.106;2023-05-18T04:24:48;6.50;35.50
1011;DHT22;494;48.744;10.106;2023-05-18T04:27:21;6.40;35.30
1011;DHT22;494;48.744;10.106;2023-05-18T04:29:49;6.50;35.90
1011;DHT22;494;48.744;10.106;2023-05-18T04:32:18;6.60;35.20
1011;DHT22;494;48.744;10.106;2023-05-18T04:34:47;6.70;35.30
1011;DHT22;494;48.744;10.106;2023-05-18T04:37:16;6.80;35.20
1011;DHT22;494;48.744;10.106;2023-05-18T04:39:46;7.00;35.30
1011;DHT22;494;48.744;10.106;2023-05-18T04:42:15;6.90;35.40
1011;DHT22;494;48.744;10.106;2023-05-18T04:44:45;6.90;35.70
1011;DHT22;494;48.744;10.106;2023-05-18T04:47:15;7.00;35.90
1011;DHT22;494;48.744;10.106;2023-05-18T04:49:43;7.20;35.70
1011;DHT22;494;48.744;10.106;2023-05-18T04:52:13;7.20;35.30
1011;DHT22;494;48.744;10.106;2023-05-18T04:54:42;7.50;35.10
1011;DHT22;494;48.744;10.106;2023-05-18T04:57:12;7.40;34.90
1011;DHT22;494;48.744;10.106;2023-05-18T04:59:41;7.40;35.00
1011;DHT22;494;48.744;10.106;2023-05-18T05:02:13;7.40;35.00
1011;DHT22;494;48.744;10.106;2023-05-18T05:04:42;7.30;35.40
1011;DHT22;494;48.744;10.106;2023-05-18T05:07:11;7.20;36.20
1011;DHT22;494;48.744;10.106;2023-05-18T05:09:40;7.20;36.60
1011;DHT22;494;48.744;10.106;2023-05-18T05:12:09;7.20;36.80
1011;DHT22;494;48.744;10.106;2023-05-18T05:14:39;7.30;37.30
1011;DHT22;494;48.744;10.106;2023-05-18T05:17:08;7.20;37.60
1011;DHT22;494;48.744;10.106;2023-05-18T05:19:38;7.40;38.20
1011;DHT22;494;48.744;10.106;2023-05-18T05:22:08;7.30;38.40
1011;DHT22;494;48.744;10.106;2023-05-18T05:24:37;7.40;38.60
1011;DHT22;494;48.744;10.106;2023-05-18T05:27:06;7.50;38.80
1011;DHT22;494;48.744;10.106;2023-05-18T05:29:35;7.70;38.70
1011;DHT22;494;48.744;10.106;2023-05-18T05:32:06;8.20;38.80
1011;DHT22;494;48.744;10.106;2023-05-18T05:34:35;8.10;38.00
1011;DHT22;494;48.744;10.106;2023-05-18T05:37:04;8.30;37.20
1011;DHT22;494;48.744;10.106;2023-05-18T05:39:33;8.50;36.40
1011;DHT22;494;48.744;10.106;2023-05-18T05:42:02;8.70;36.10
1011;DHT22;494;48.744;10.106;2023-05-18T05:44:31;8.80;35.90
1011;DHT22;494;48.744;10.106;2023-05-18T05:47:00;8.90;34.90
1011;DHT22;494;48.744;10.106;2023-05-18T05:49:31;9.10;34.10
1011;DHT22;494;48.744;10.106;2023-05-18T05:52:00;9.30;33.80
1011;DHT22;494;48.744;10.106;2023-05-18T05:54:29;9.40;32.80
1011;DHT22;494;48.744;10.106;2023-05-18T05:56:58;9.70;32.70
1011;DHT22;494;48.744;10.106;2023-05-18T05:59:27;10.00;32.00
1011;DHT22;494;48.744;10.106;2023-05-18T06:01:58;10.30;31.00
1011;DHT22;494;48.744;10.106;2023-05-18T06:04:27;10.60;29.50
1011;DHT22;494;48.744;10.106;2023-05-18T06:07:00;10.80;28.40
1011;DHT22;494;48.744;10.106;2023-05-18T06:09:30;11.10;28.00
1011;DHT22;494;48.744;10.106;2023-05-18T06:12:00;11.40;26.30
1011;DHT22;494;48.744;10.106;2023-05-18T06:14:29;11.60;25.60
1011;DHT22;494;48.744;10.106;2023-05-18T06:16:59;11.90;23.70
1011;DHT22;494;48.744;10.106;2023-05-18T06:19:28;12.10;23.10
1011;DHT22;494;48.744;10.106;2023-05-18T06:22:17;12.50;21.50
1011;DHT22;494;48.744;10.106;2023-05-18T06:25:10;12.80;19.90
1011;DHT22;494;48.744;10.106;2023-05-18T06:29:17;13.00;18.90
1011;DHT22;494;48.744;10.106;2023-05-18T06:32:01;13.40;18.40
1011;DHT22;494;48.744;10.106;2023-05-18T06:34:42;13.60;17.10
1011;DHT22;494;48.744;10.106;2023-05-18T06:37:13;13.60;15.90
1011;DHT22;494;48.744;10.106;2023-05-18T06:39:48;13.80;16.50
1011;DHT22;494;48.744;10.106;2023-05-18T06:42:16;13.90;15.90
1011;DHT22;494;48.744;10.106;2023-05-18T06:44:46;14.00;14.40
1011;DHT22;494;48.744;10.106;2023-05-18T06:47:16;14.00;15.00
1011;DHT22;494;48.744;10.106;2023-05-18T06:49:49;14.20;14.70
1011;DHT22;494;48.744;10.106;2023-05-18T06:52:19;14.40;14.60
1011;DHT22;494;48.744;10.106;2023-05-18T06:54:47;14.20;14.00
1011;DHT22;494;48.744;10.106;2023-05-18T06:57:16;14.40;13.90
1011;DHT22;494;48.744;10.106;2023-05-18T06:59:45;14.50;13.90
1011;DHT22;494;48.744;10.106;2023-05-18T07:02:19;14.60;13.60
1011;DHT22;494;48.744;10.106;2023-05-18T07:04:48;14.60;13.60
1011;DHT22;494;48.744;10.106;2023-05-18T07:07:18;14.70;13.10
1011;DHT22;494;48.744;10.106;2023-05-18T07:09:48;14.90;13.30
1011;DHT22;494;48.744;10.106;2023-05-18T07:12:18;15.20;12.90
1011;DHT22;494;48.744;10.106;2023-05-18T07:14:46;15.30;13.40
1011;DHT22;494;48.744;10.106;2023-05-18T07:17:15;15.30;11.30
1011;DHT22;494;48.744;10.106;2023-05-18T07:19:44;15.40;12.60
1011;DHT22;494;48.744;10.106;2023-05-18T07:22:13;15.50;12.50
1011;DHT22;494;48.744;10.106;2023-05-18T07:24:44;15.60;11.50
1011;DHT22;494;48.744;10.106;2023-05-18T07:27:13;15.70;11.40
1011;DHT22;494;48.744;10.106;2023-05-18T07:29:42;15.90;12.20
1011;DHT22;494;48.744;10.106;2023-05-18T07:32:11;16.30;12.00
1011;DHT22;494;48.744;10.106;2023-05-18T07:34:40;16.50;11.50
1011;DHT22;494;48.744;10.106;2023-05-18T07:37:12;16.70;9.80
1011;DHT22;494;48.744;10.106;2023-05-18T07:39:43;16.80;10.40
1011;DHT22;494;48.744;10.106;2023-05-18T07:42:12;16.80;10.10
1011;DHT22;494;48.744;10.106;2023-05-18T07:44:40;16.90;10.30
1011;DHT22;494;48.744;10.106;2023-05-18T07:47:09;17.00;9.80
1011;DHT22;494;48.744;10.106;2023-05-18T07:49:39;17.10;9.20
1011;DHT22;494;48.744;10.106;2023-05-18T07:52:08;17.10;9.20
1011;DHT22;494;48.744;10.106;2023-05-18T07:54:37;17.10;8.70
1011;DHT22;494;48.744;10.106;2023-05-18T07:57:07;17.10;8.80
1011;DHT22;494;48.744;10.106;2023-05-18T07:59:36;17.10;9.10
1011;DHT22;494;48.744;10.106;2023-05-18T08:02:05;17.10;9.30
1011;DHT22;494;48.744;10.106;2023-05-18T08:04:35;17.20;8.50
1011;DHT22;494;48.744;10.106;2023-05-18T08:07:04;17.10;9.20
1011;DHT22;494;48.744;10.106;2023-05-18T08:09:33;17.20;9.70
1011;DHT22;494;48.744;10.106;2023-05-18T08:12:02;17.30;8.80
1011;DHT22;494;48.744;10.106;2023-05-18T08:14:36;17.50;7.80
1011;DHT22;494;48.744;10.106;2023-05-18T08:17:05;17.70;7.80
1011;DHT22;494;48.744;10.106;2023-05-18T08:19:34;17.70;7.30
1011;DHT22;494;48.744;10.106;2023-05-18T08:22:06;17.60;7.80
1011;DHT22;494;48.744;10.106;2023-05-18T08:24:36;17.60;7.60
1011;DHT22;494;48.744;10.106;2023-05-18T08:27:05;17.60;7.20
1011;DHT22;494;48.744;10.106;2023-05-18T08:29:37;17.50;7.80
1011;DHT22;494;48.744;10.106;2023-05-18T08:32:07;17.40;7.20
1011;DHT22;494;48.744;10.106;2023-05-18T08:34:35;17.50;7.20
1011;DHT22;494;48.744;10.106;2023-05-18T08:37:05;17.50;6.40
1011;DHT22;494;48.744;10.106;2023-05-18T08:39:33;17.40;6.20
1011;DHT22;494;48.744;10.106;2023-05-18T08:42:09;17.40;6.70
1011;DHT22;494;48.744;10.106;2023-05-18T08:44:50;17.30;7.50
1011;DHT22;494;48.744;10.106;2023-05-18T08:47:30;17.50;9.30
1011;DHT22;494;48.744;10.106;2023-05-18T08:50:04;17.80;6.70
1011;DHT22;494;48.744;10.106;2023-05-18T08:52:35;17.60;8.20
1011;DHT22;494;48.744;10.106;2023-05-18T08:55:05;17.90;7.70
1011;DHT22;494;48.744;10.106;2023-05-18T08:57:38;18.10;7.00
1011;DHT22;494;48.744;10.106;2023-05-18T09:00:13;18.20;6.90
1011;DHT22;494;48.744;10.106;2023-05-18T09:02:44;18.40;7.30
1011;DHT22;494;48.744;10.106;2023-05-18T09:05:15;18.40;6.30
1011;DHT22;494;48.744;10.106;2023-05-18T09:07:46;18.20;6.30
1011;DHT22;494;48.744;10.106;2023-05-18T09:10:17;18.00;6.90
1011;DHT22;494;48.744;10.106;2023-05-18T09:12:48;18.10;8.00
1011;DHT22;494;48.744;10.106;2023-05-18T09:15:20;18.50;8.70
1011;DHT22;494;48.744;10.106;2023-05-18T09:17:51;18.70;5.80
1011;DHT22;494;48.744;10.106;2023-05-18T09:20:20;18.70;6.10
1011;DHT22;494;48.744;10.106;2023-05-18T09:22:49;18.80;6.90
1011;DHT22;494;48.744;10.106;2023-05-18T09:25:20;18.70;6.70
1011;DHT22;494;48.744;10.106;2023-05-18T09:27:51;18.70;6.50
1011;DHT22;494;48.744;10.106;2023-05-18T09:30:23;18.70;6.70
1011;DHT22;494;48.744;10.106;2023-05-18T09:32:52;18.80;6.40
1011;DHT22;494;48.744;10.106;2023-05-18T09:35:23;19.00;5.70
1011;DHT22;494;48.744;10.106;2023-05-18T09:37:52;19.10;6.50
1011;DHT22;494;48.744;10.106;2023-05-18T09:40:27;19.30;6.00
1011;DHT22;494;48.744;10.106;2023-05-18T09:42:56;19.60;4.90
1011;DHT22;494;48.744;10.106;2023-05-18T09:45:27;19.80;4.10
1011;DHT22;494;48.744;10.106;2023-05-18T09:47:57;19.80;3.40
1011;DHT22;494;48.744;10.106;2023-05-18T09:50:25;19.90;3.70
1011;DHT22;494;48.744;10.106;2023-05-18T09:52:54;20.10;4.10
1011;DHT22;494;48.744;10.106;2023-05-18T09:55:24;20.30;3.50
1011;DHT22;494;48.744;10.106;2023-05-18T09:57:55;20.50;3.70
1011;DHT22;494;48.744;10.106;2023-05-18T10:00:24;20.40;2.20
1011;DHT22;494;48.744;10.106;2023-05-18T10:02:55;20.30;4.10
1011;DHT22;494;48.744;10.106;2023-05-18T10:05:25;20.30;2.60
1011;DHT22;494;48.744;10.106;2023-05-18T10:08:01;20.40;4.10
1011;DHT22;494;48.744;10.106;2023-05-18T10:10:30;20.60;2.30
1011;DHT22;494;48.744;10.106;2023-05-18T10:13:00;20.70;3.30
1011;DHT22;494;48.744;10.106;2023-05-18T10:15:30;20.80;2.70
1011;DHT22;494;48.744;10.106;2023-05-18T10:18:02;20.80;4.50
1011;DHT22;494;48.744;10.106;2023-05-18T10:20:35;20.70;3.30
1011;DHT22;494;48.744;10.106;2023-05-18T10:23:06;20.40;1.50
1011;DHT22;494;48.744;10.106;2023-05-18T10:25:37;20.40;3.50
1011;DHT22;494;48.744;10.106;2023-05-18T10:28:09;20.40;3.20
1011;DHT22;494;48.744;10.106;2023-05-18T10:30:42;20.70;3.30
1011;DHT22;494;48.744;10.106;2023-05-18T10:33:12;20.90;3.40
1011;DHT22;494;48.744;10.106;2023-05-18T10:35:55;21.20;1.00
1011;DHT22;494;48.744;10.106;2023-05-18T10:38:26;21.00;1.00
1011;DHT22;494;48.744;10.106;2023-05-18T10:40:56;20.90;1.20
1011;DHT22;494;48.744;10.106;2023-05-18T10:43:27;21.10;2.70
1011;DHT22;494;48.744;10.106;2023-05-18T10:45:59;21.40;1.00
1011;DHT22;494;48.744;10.106;2023-05-18T10:48:30;21.50;1.30
1011;DHT22;494;48.744;10.106;2023-05-18T10:50:58;21.50;1.00
1011;DHT22;494;48.744;10.106;2023-05-18T10:53:32;21.60;1.00
1011;DHT22;494;48.744;10.106;2023-05-18T10:56:03;21.50;1.00
1011;DHT22;494;48.744;10.106;2023-05-18T10:58:35;21.60;1.00
1011;DHT22;494;48.744;10.106;2023-05-18T11:01:09;21.60;1.00
1011;DHT22;494;48.744;10.106;2023-05-18T11:03:40;21.90;1.00
1011;DHT22;494;48.744;10.106;2023-05-18T11:06:10;22.00;1.00
1011;DHT22;494;48.744;10.106;2023-05-18T11:08:42;22.30;1.50
1011;DHT22;494;48.744;10.106;2023-05-18T11:11:12;22.70;1.00
1011;DHT22;494;48.744;10.106;2023-05-18T11:13:49;22.90;1.20
1011;DHT22;494;48.744;10.106;2023-05-18T11:16:19;23.10;1.00
1011;DHT22;494;48.744;10.106;2023-05-18T11:19:04;23.00;1.00
1011;DHT22;494;48.744;10.106;2023-05-18T11:21:52;22.90;1.00
1011;DHT22;494;48.744;10.106;2023-05-18T11:24:25;23.20;1.00
1011;DHT22;494;48.744;10.106;2023-05-18T11:26:59;23.40;1.00
1011;DHT22;494;48.744;10.106;2023-05-18T11:29:31;23.70;1.00
1011;DHT22;494;48.744;10.106;2023-05-18T11:32:03;23.90;1.00
1011;DHT22;494;48.744;10.106;2023-05-18T11:34:56;23.90;1.00
1011;DHT22;494;48.744;10.106;2023-05-18T11:37:47;23.90;1.00
1011;DHT22;494;48.744;10.106;2023-05-18T11:40:44;23.90;1.00
1011;DHT22;494;48.744;10.106;2023-05-18T11:43:19;23.60;1.00
1011;DHT22;494;48.744;10.106;2023-05-18T11:45:52;23.50;1.00
1011;DHT22;494;48.744;10.106;2023-05-18T11:48:27;23.50;1.00
1011;DHT22;494;48.744;10.106;2023-05-18T11:50:56;23.40;1.00
1011;DHT22;494;48.744;10.106;2023-05-18T11:53:26;23.10;1.00
1011;DHT22;494;48.744;10.106;2023-05-18T11:55:59;23.30;1.00
1011;DHT22;494;48.744;10.106;2023-05-18T11:58:29;23.70;1.00
1011;DHT22;494;48.744;10.106;2023-05-18T12:00:58;23.80;1.00
1011;DHT22;494;48.744;10.106;2023-05-18T12:03:30;23.50;1.00
1011;DHT22;494;48.744;10.106;2023-05-18T12:06:00;23.40;1.00
1011;DHT22;494;48.744;10.106;2023-05-18T12:08:29;23.20;1.00
1011;DHT22;494;48.744;10.106;2023-05-18T12:10:58;23.30;1.00
1011;DHT22;494;48.744;10.106;2023-05-18T12:13:28;22.70;1.00
1011;DHT22;494;48.744;10.106;2023-05-18T12:15:58;22.50;1.00
1011;DHT22;494;48.744;10.106;2023-05-18T12:18:27;22.40;1.00
1011;DHT22;494;48.744;10.106;2023-05-18T12:20:58;22.60;1.00
1011;DHT22;494;48.744;10.106;2023-05-18T12:23:35;22.80;1.00
1011;DHT22;494;48.744;10.106;2023-05-18T12:26:04;22.70;2.40
1011;DHT22;494;48.744;10.106;2023-05-18T12:28:34;23.10;1.00
1011;DHT22;494;48.744;10.106;2023-05-18T12:31:03;23.40;1.00
1011;DHT22;494;48.744;10.106;2023-05-18T12:33:34;23.50;1.00
1011;DHT22;494;48.744;10.106;2023-05-18T12:36:09;23.60;1.00
1011;DHT22;494;48.744;10.106;2023-05-18T12:38:38;23.60;1.00
1011;DHT22;494;48.744;10.106;2023-05-18T12:41:07;23.10;1.00
1011;DHT22;494;48.744;10.106;2023-05-18T12:43:36;23.00;1.00
1011;DHT22;494;48.744;10.106;2023-05-18T12:46:04;23.10;1.00
1011;DHT22;494;48.744;10.106;2023-05-18T12:48:37;22.90;1.00
1011;DHT22;494;48.744;10.106;2023-05-18T12:51:19;22.60;1.00
1011;DHT22;494;48.744;10.106;2023-05-18T12:53:48;22.20;1.00
1011;DHT22;494;48.744;10.106;2023-05-18T12:56:18;21.90;1.70
1011;DHT22;494;48.744;10.106;2023-05-18T12:58:57;21.80;2.50
1011;DHT22;494;48.744;10.106;2023-05-18T13:01:29;21.90;1.00
1011;DHT22;494;48.744;10.106;2023-05-18T13:03:58;21.60;1.30
1011;DHT22;494;48.744;10.106;2023-05-18T13:06:28;21.20;1.50
1011;DHT22;494;48.744;10.106;2023-05-18T13:08:57;21.00;2.60
1011;DHT22;494;48.744;10.106;2023-05-18T13:11:25;20.80;3.10
1011;DHT22;494;48.744;10.106;2023-05-18T13:14:00;20.70;3.70
1011;DHT22;494;48.744;10.106;2023-05-18T13:16:31;20.90;3.70
1011;DHT22;494;48.744;10.106;2023-05-18T13:19:03;21.00;3.40
1011;DHT22;494;48.744;10.106;2023-05-18T13:21:35;21.10;3.00
1011;DHT22;494;48.744;10.106;2023-05-18T13:24:05;21.60;3.90
1011;DHT22;494;48.744;10.106;2023-05-18T13:26:34;22.30;2.90
1011;DHT22;494;48.744;10.106;2023-05-18T13:29:04;23.10;1.80
1011;DHT22;494;48.744;10.106;2023-05-18T13:31:34;23.60;1.00
1011;DHT22;494;48.744;10.106;2023-05-18T13:34:03;23.40;1.00
1011;DHT22;494;48.744;10.106;2023-05-18T13:36:33;22.70;1.00
1011;DHT22;494;48.744;10.106;2023-05-18T13:39:03;22.30;3.00
1011;DHT22;494;48.744;10.106;2023-05-18T13:41:33;21.90;1.60
1011;DHT22;494;48.744;10.106;2023-05-18T13:44:02;21.60;2.70
1011;DHT22;494;48.744;10.106;2023-05-18T13:46:31;21.50;2.70
1011;DHT22;494;48.744;10.106;2023-05-18T13:49:04;21.90;2.90
1011;DHT22;494;48.744;10.106;2023-05-18T13:51:34;22.20;1.50
1011;DHT22;494;48.744;10.106;2023-05-18T13:54:02;21.90;1.30
1011;DHT22;494;48.744;10.106;2023-05-18T13:56:31;21.60;1.90
1011;DHT22;494;48.744;10.106;2023-05-18T13:59:00;21.20;2.50
1011;DHT22;494;48.744;10.106;2023-05-18T14:01:29;20.90;2.50
1011;DHT22;494;48.744;10.106;2023-05-18T14:04:01;20.40;3.20
1011;DHT22;494;48.744;10.106;2023-05-18T14:06:30;20.30;3.30
1011;DHT22;494;48.744;10.106;2023-05-18T14:09:01;20.30;3.40
1011;DHT22;494;48.744;10.106;2023-05-18T14:11:30;20.20;3.30
1011;DHT22;494;48.744;10.106;2023-05-18T14:14:00;20.20;4.20
1011;DHT22;494;48.744;10.106;2023-05-18T14:16:28;20.20;4.10
1011;DHT22;494;48.744;10.106;2023-05-18T14:18:57;20.20;4.20
1011;DHT22;494;48.744;10.106;2023-05-18T14:21:28;20.20;4.00
1011;DHT22;494;48.744;10.106;2023-05-18T14:23:57;20.20;3.40
1011;DHT22;494;48.744;10.106;2023-05-18T14:26:31;20.10;4.20
1011;DHT22;494;48.744;10.106;2023-05-18T14:29:00;20.10;3.70
1011;DHT22;494;48.744;10.106;2023-05-18T14:31:30;20.00;3.00
1011;DHT22;494;48.744;10.106;2023-05-18T14:33:59;20.00;4.70
1011;DHT22;494;48.744;10.106;2023-05-18T14:36:28;19.90;4.30
1011;DHT22;494;48.744;10.106;2023-05-18T14:38:57;19.80;3.20
1011;DHT22;494;48.744;10.106;2023-05-18T14:41:27;19.70;3.50
1011;DHT22;494;48.744;10.106;2023-05-18T14:43:59;19.80;4.10
1011;DHT22;494;48.744;10.106;2023-05-18T14:46:32;19.60;3.90
1011;DHT22;494;48.744;10.106;2023-05-18T14:49:01;19.70;4.60
1011;DHT22;494;48.744;10.106;2023-05-18T14:51:29;19.70;4.10
1011;DHT22;494;48.744;10.106;2023-05-18T14:53:58;19.80;5.10
1011;DHT22;494;48.744;10.106;2023-05-18T14:56:27;20.00;4.00
1011;DHT22;494;48.744;10.106;2023-05-18T14:58:57;20.20;3.80
1011;DHT22;494;48.744;10.106;2023-05-18T15:01:26;20.20;3.60
1011;DHT22;494;48.744;10.106;2023-05-18T15:03:55;20.00;3.20
1011;DHT22;494;48.744;10.106;2023-05-18T15:06:24;19.80;4.20
1011;DHT22;494;48.744;10.106;2023-05-18T15:08:53;19.60;3.90
1011;DHT22;494;48.744;10.106;2023-05-18T15:11:22;19.30;4.40
1011;DHT22;494;48.744;10.106;2023-05-18T15:13:50;19.20;4.70
1011;DHT22;494;48.744;10.106;2023-05-18T15:16:21;19.30;5.10
1011;DHT22;494;48.744;10.106;2023-05-18T15:18:50;19.40;4.70
1011;DHT22;494;48.744;10.106;2023-05-18T15:21:21;19.60;6.20
1011;DHT22;494;48.744;10.106;2023-05-18T15:23:49;20.10;3.60
1011;DHT22;494;48.744;10.106;2023-05-18T15:26:18;20.40;3.90
1011;DHT22;494;48.744;10.106;2023-05-18T15:28:47;20.40;2.80
1011;DHT22;494;48.744;10.106;2023-05-18T15:31:16;20.20;3.10
1011;DHT22;494;48.744;10.106;2023-05-18T15:33:46;20.10;3.60
1011;DHT22;494;48.744;10.106;2023-05-18T15:36:15;19.80;4.20
1011;DHT22;494;48.744;10.106;2023-05-18T15:38:44;19.80;4.30
1011;DHT22;494;48.744;10.106;2023-05-18T15:41:13;19.50;4.70
1011;DHT22;494;48.744;10.106;2023-05-18T15:43:42;19.60;3.90
1011;DHT22;494;48.744;10.106;2023-05-18T15:46:12;19.50;5.20
1011;DHT22;494;48.744;10.106;2023-05-18T15:48:41;19.40;4.20
1011;DHT22;494;48.744;10.106;2023-05-18T15:51:13;19.40;4.60
1011;DHT22;494;48.744;10.106;2023-05-18T15:53:45;19.40;4.90
1011;DHT22;494;48.744;10.106;2023-05-18T15:56:14;19.40;4.50
1011;DHT22;494;48.744;10.106;2023-05-18T15:58:44;19.20;4.40
1011;DHT22;494;48.744;10.106;2023-05-18T16:01:12;19.00;3.80
1011;DHT22;494;48.744;10.106;2023-05-18T16:03:41;18.80;4.10
1011;DHT22;494;48.744;10.106;2023-05-18T16:06:13;18.80;4.80
1011;DHT22;494;48.744;10.106;2023-05-18T16:08:42;18.80;5.50
1011;DHT22;494;48.744;10.106;2023-05-18T16:11:12;18.90;4.60
1011;DHT22;494;48.744;10.106;2023-05-18T16:13:40;18.90;5.10
1011;DHT22;494;48.744;10.106;2023-05-18T16:16:09;19.00;4.60
1011;DHT22;494;48.744;10.106;2023-05-18T16:18:40;19.10;4.80
1011;DHT22;494;48.744;10.106;2023-05-18T16:21:09;19.10;4.60
1011;DHT22;494;48.744;10.106;2023-05-18T16:23:41;19.20;5.60
1011;DHT22;494;48.744;10.106;2023-05-18T16:26:10;19.30;4.60
1011;DHT22;494;48.744;10.106;2023-05-18T16:28:39;19.40;4.80
1011;DHT22;494;48.744;10.106;2023-05-18T16:31:08;19.30;4.40
1011;DHT22;494;48.744;10.106;2023-05-18T16:33:38;19.30;4.70
1011;DHT22;494;48.744;10.106;2023-05-18T16:36:08;19.00;4.90
1011;DHT22;494;48.744;10.106;2023-05-18T16:38:37;18.80;5.50
1011;DHT22;494;48.744;10.106;2023-05-18T16:41:07;18.70;5.80